Time;durP1;ratioP1;P1;durP2;ratioP2;P2;SDS_P1;SDS_P2;PMS_P1;PMS_P2;Temp;Humidity;BMP_temperature;BMP_pressure;BME280_temperature;BME280_humidity;BME280_pressure;Samples;Min_cycle;Max_cycle;Signal;HPM_P1;HPM_P2
2022/12/26 00:00:41;;;;;;;13.50;6.97;;;;;;;;;;5073748;28;20762;-70
2022/12/26 00:03:17;;;;;;;15.80;6.57;;;;;;;;;;5068749;28;20457;-70
2022/12/26 00:05:45;;;;;;;15.93;6.07;;;;;;;;;;5055397;28;20488;-71
2022/12/26 00:08:13;;;;;;;12.30;6.10;;;;;;;;;;5068971;28;20543;-70
2022/12/26 00:10:45;;;;;;;14.03;7.30;;;;;;;;;;5079734;28;20463;-70
2022/12/26 00:13:13;;;;;;;10.60;5.27;;;;;;;;;;5099324;28;20512;-70
2022/12/26 00:15:42;;;;;;;10.40;5.03;;;;;;;;;;5095734;28;20440;-71
2022/12/26 00:18:16;;;;;;;14.83;6.20;;;;;;;;;;5078908;28;20456;-70
2022/12/26 00:20:44;;;;;;;13.13;5.90;;;;;;;;;;5080713;28;20464;-70
2022/12/26 00:23:12;;;;;;;11.83;5.60;;;;;;;;;;5079674;28;20456;-70
2022/12/26 00:25:39;;;;;;;11.93;5.40;;;;;;;;;;5066277;28;20485;-70
2022/12/26 00:28:21;;;;;;;12.10;4.67;;;;;;;;;;5079723;28;20448;-71
2022/12/26 00:30:53;;;;;;;12.40;5.70;;;;;;;;;;5069632;28;20452;-70
2022/12/26 00:33:21;;;;;;;12.17;6.13;;;;;;;;;;5059123;28;20453;-70
2022/12/26 00:35:54;;;;;;;9.53;4.80;;;;;;;;;;5059014;28;20511;-70
2022/12/26 00:38:38;;;;;;;10.07;4.77;;;;;;;;;;5059360;28;20434;-70
2022/12/26 00:41:06;;;;;;;6.87;4.13;;;;;;;;;;5059105;28;20738;-70
2022/12/26 00:43:40;;;;;;;9.67;5.17;;;;;;;;;;5061863;28;20857;-70
2022/12/26 00:46:09;;;;;;;9.10;5.30;;;;;;;;;;5058773;28;20587;-70
2022/12/26 00:48:40;;;;;;;8.73;4.50;;;;;;;;;;5059103;28;20465;-70
2022/12/26 00:51:14;;;;;;;10.10;5.30;;;;;;;;;;5059096;28;20472;-70
2022/12/26 00:54:10;;;;;;;10.07;4.87;;;;;;;;;;5058945;28;20492;-70
2022/12/26 00:56:38;;;;;;;9.40;4.30;;;;;;;;;;5012653;28;20464;-70
2022/12/26 00:59:08;;;;;;;8.03;4.50;;;;;;;;;;5059299;28;20441;-70
2022/12/26 01:01:37;;;;;;;7.00;4.40;;;;;;;;;;5058628;28;20453;-70
2022/12/26 01:04:08;;;;;;;9.13;4.13;;;;;;;;;;5058799;28;20442;-70
2022/12/26 01:06:36;;;;;;;8.87;4.90;;;;;;;;;;5059000;28;20485;-70
2022/12/26 01:09:04;;;;;;;10.40;4.50;;;;;;;;;;5058360;28;20441;-70
2022/12/26 01:11:41;;;;;;;7.40;4.33;;;;;;;;;;5058977;28;20536;-70
2022/12/26 01:14:10;;;;;;;9.50;4.60;;;;;;;;;;5059171;28;20457;-70
2022/12/26 01:16:39;;;;;;;6.63;4.60;;;;;;;;;;5058578;28;20453;-70
2022/12/26 01:19:07;;;;;;;8.13;4.97;;;;;;;;;;5058357;28;20515;-70
2022/12/26 01:21:39;;;;;;;9.67;5.90;;;;;;;;;;5058521;28;20466;-71
2022/12/26 01:24:07;;;;;;;7.90;5.07;;;;;;;;;;5058759;28;20493;-70
2022/12/26 01:26:35;;;;;;;6.50;4.97;;;;;;;;;;5077104;28;20770;-70
2022/12/26 01:29:02;;;;;;;6.43;3.90;;;;;;;;;;5078305;28;20452;-70
2022/12/26 01:31:31;;;;;;;7.33;4.20;;;;;;;;;;5078360;28;20464;-71
2022/12/26 01:34:00;;;;;;;9.00;6.13;;;;;;;;;;5078346;28;20539;-70
2022/12/26 01:36:28;;;;;;;8.70;5.60;;;;;;;;;;5077727;28;20518;-70
2022/12/26 01:38:59;;;;;;;11.50;5.40;;;;;;;;;;5078605;28;20452;-70
2022/12/26 01:41:32;;;;;;;7.13;4.30;;;;;;;;;;5078238;28;20464;-70
2022/12/26 01:44:02;;;;;;;9.97;6.97;;;;;;;;;;5077909;28;20455;-70
2022/12/26 01:46:31;;;;;;;10.57;6.43;;;;;;;;;;5078082;28;20567;-70
2022/12/26 01:49:08;;;;;;;10.50;5.40;;;;;;;;;;5077964;28;20525;-70
2022/12/26 01:51:38;;;;;;;13.70;4.93;;;;;;;;;;5073734;28;20457;-70
2022/12/26 01:54:08;;;;;;;9.53;4.93;;;;;;;;;;5058115;28;20450;-70
2022/12/26 01:56:38;;;;;;;8.37;5.20;;;;;;;;;;5064344;28;20514;-70
2022/12/26 01:59:09;;;;;;;10.10;5.53;;;;;;;;;;5077731;28;20445;-70
2022/12/26 02:01:38;;;;;;;18.20;5.43;;;;;;;;;;5077708;28;20464;-70
2022/12/26 02:06:54;;;;;;;9.70;5.77;;;;;;;;;;5065137;28;20484;-70
2022/12/26 02:09:23;;;;;;;8.50;5.37;;;;;;;;;;5057838;28;20446;-70
2022/12/26 02:11:52;;;;;;;8.40;5.00;;;;;;;;;;5057234;28;20460;-70
2022/12/26 02:14:24;;;;;;;11.10;6.43;;;;;;;;;;5056641;28;20454;-71
2022/12/26 02:16:52;;;;;;;11.67;6.60;;;;;;;;;;5057506;28;20457;-71
2022/12/26 02:19:29;;;;;;;11.17;5.17;;;;;;;;;;5059155;28;20449;-70
2022/12/26 02:22:06;;;;;;;10.03;5.50;;;;;;;;;;5077050;28;20470;-70
2022/12/26 02:24:48;;;;;;;11.37;6.03;;;;;;;;;;5077337;28;20452;-70
2022/12/26 02:27:22;;;;;;;11.00;6.00;;;;;;;;;;5077040;28;20456;-69
2022/12/26 02:30:02;;;;;;;19.03;9.90;;;;;;;;;;5076151;28;20456;-70
2022/12/26 02:32:38;;;;;;;11.03;6.40;;;;;;;;;;5076501;28;20486;-70
2022/12/26 02:35:09;;;;;;;10.87;6.00;;;;;;;;;;5077491;28;20551;-71
2022/12/26 02:37:44;;;;;;;9.37;4.70;;;;;;;;;;5077461;28;20487;-70
2022/12/26 02:40:23;;;;;;;10.97;6.53;;;;;;;;;;5076750;28;20440;-70
2022/12/26 02:42:57;;;;;;;11.90;9.47;;;;;;;;;;5077205;28;20464;-71
2022/12/26 02:48:17;;;;;;;10.33;6.67;;;;;;;;;;5062532;28;20568;-71
2022/12/26 03:13:13;;;;;;;13.77;6.40;;;;;;;;;;5076499;28;20474;-70
2022/12/26 03:18:32;;;;;;;10.73;6.37;;;;;;;;;;5056266;28;20757;-70
2022/12/26 03:21:02;;;;;;;10.47;6.07;;;;;;;;;;5057983;28;20477;-71
2022/12/26 03:23:35;;;;;;;13.23;6.87;;;;;;;;;;5056423;28;20472;-71
2022/12/26 03:30:47;;;;;;;9.77;6.97;;;;;;;;;;5055965;28;20413;-70
2022/12/26 03:31:39;;;;;;;11.33;4.67;;;;;;;;;;5056210;28;20511;-70
2022/12/26 03:34:19;;;;;;;10.30;5.77;;;;;;;;;;5056890;28;20849;-70
2022/12/26 03:36:58;;;;;;;9.43;5.07;;;;;;;;;;5056258;28;20469;-71
2022/12/26 04:19:22;;;;;;;12.20;6.20;;;;;;;;;;5056034;28;20774;-71
2022/12/26 04:44:11;;;;;;;9.30;5.47;;;;;;;;;;5055150;28;20420;-70
2022/12/26 04:46:40;;;;;;;8.90;5.07;;;;;;;;;;5054931;28;20503;-71
2022/12/26 04:51:58;;;;;;;9.03;5.37;;;;;;;;;;5055302;28;20441;-70
2022/12/26 04:54:28;;;;;;;7.23;4.40;;;;;;;;;;5056350;28;20518;-71
2022/12/26 04:56:57;;;;;;;10.10;6.13;;;;;;;;;;5058644;28;20472;-70
2022/12/26 04:59:27;;;;;;;8.80;5.00;;;;;;;;;;5058896;28;20461;-70
2022/12/26 05:10:14;;;;;;;7.27;4.17;;;;;;;;;;5058349;28;20425;-70
2022/12/26 05:12:41;;;;;;;9.93;6.00;;;;;;;;;;5058878;28;20804;-70
2022/12/26 05:15:11;;;;;;;9.27;5.50;;;;;;;;;;5058904;28;20877;-70
2022/12/26 05:29:02;;;;;;;9.17;5.43;;;;;;;;;;5078593;28;20476;-71
2022/12/26 05:31:31;;;;;;;10.00;5.00;;;;;;;;;;5078831;28;20555;-70
2022/12/26 05:34:07;;;;;;;8.77;4.50;;;;;;;;;;5069871;28;21004;-70
2022/12/26 05:36:37;;;;;;;10.93;5.23;;;;;;;;;;5058496;28;20453;-71
2022/12/26 05:39:05;;;;;;;6.57;3.37;;;;;;;;;;5058071;28;20456;-70
2022/12/26 05:41:32;;;;;;;7.43;4.60;;;;;;;;;;5058351;28;20458;-70
2022/12/26 05:44:00;;;;;;;5.80;3.70;;;;;;;;;;5069780;28;20448;-70
2022/12/26 05:46:28;;;;;;;5.30;4.07;;;;;;;;;;5076733;28;20480;-70
2022/12/26 05:48:57;;;;;;;6.40;3.70;;;;;;;;;;5078439;28;20720;-70
2022/12/26 05:51:25;;;;;;;5.80;3.10;;;;;;;;;;5078601;28;20460;-70
2022/12/26 05:53:52;;;;;;;5.13;2.90;;;;;;;;;;5078116;28;20453;-71
2022/12/26 05:56:20;;;;;;;5.60;3.10;;;;;;;;;;5075680;28;20463;-71
2022/12/26 05:58:48;;;;;;;3.93;3.10;;;;;;;;;;5077021;28;20936;-70
2022/12/26 06:01:16;;;;;;;5.80;3.23;;;;;;;;;;5065822;28;20453;-70
2022/12/26 06:03:47;;;;;;;4.90;2.90;;;;;;;;;;5057739;28;20519;-70
2022/12/26 06:06:16;;;;;;;4.63;2.67;;;;;;;;;;5057917;28;20524;-71
2022/12/26 06:08:44;;;;;;;3.30;2.50;;;;;;;;;;5057982;28;20460;-70
2022/12/26 06:11:13;;;;;;;3.00;1.97;;;;;;;;;;5057809;28;20465;-70
2022/12/26 06:13:41;;;;;;;4.70;2.83;;;;;;;;;;5057524;28;20518;-71
2022/12/26 06:16:10;;;;;;;3.73;2.57;;;;;;;;;;5077706;28;20547;-71
2022/12/26 06:18:38;;;;;;;4.33;2.93;;;;;;;;;;5071453;28;20476;-71
2022/12/26 06:21:06;;;;;;;4.23;2.93;;;;;;;;;;5061999;28;20469;-70
2022/12/26 06:23:36;;;;;;;2.60;1.77;;;;;;;;;;5070706;28;20845;-70
2022/12/26 06:26:03;;;;;;;2.90;2.20;;;;;;;;;;5063996;28;20497;-70
2022/12/26 06:28:31;;;;;;;3.00;2.10;;;;;;;;;;5058898;28;20457;-70
2022/12/26 06:31:03;;;;;;;3.33;1.80;;;;;;;;;;5057502;28;20472;-71
2022/12/26 06:33:30;;;;;;;2.90;1.90;;;;;;;;;;5056529;28;20888;-70
2022/12/26 06:36:02;;;;;;;4.00;1.90;;;;;;;;;;5059113;28;20457;-70
2022/12/26 06:38:30;;;;;;;3.40;1.90;;;;;;;;;;5064281;28;20467;-71
2022/12/26 06:40:59;;;;;;;3.33;2.10;;;;;;;;;;5057408;28;20449;-70
2022/12/26 06:43:27;;;;;;;2.30;1.20;;;;;;;;;;5057198;28;20869;-70
2022/12/26 06:45:57;;;;;;;2.90;1.50;;;;;;;;;;5058252;28;20497;-71
2022/12/26 06:48:25;;;;;;;2.67;1.60;;;;;;;;;;5075631;28;20472;-71
2022/12/26 06:50:53;;;;;;;7.47;2.00;;;;;;;;;;5076901;28;20453;-71
2022/12/26 06:53:21;;;;;;;2.80;2.00;;;;;;;;;;5075114;28;20535;-71
2022/12/26 06:55:48;;;;;;;4.13;2.10;;;;;;;;;;5063760;28;20531;-71
2022/12/26 06:58:20;;;;;;;4.03;2.70;;;;;;;;;;5076845;28;20475;-71
2022/12/26 07:00:48;;;;;;;5.30;2.67;;;;;;;;;;5069742;28;20458;-71
2022/12/26 07:03:16;;;;;;;2.70;1.93;;;;;;;;;;5058611;28;20460;-71
2022/12/26 07:05:43;;;;;;;3.50;2.40;;;;;;;;;;5055451;28;20472;-71
2022/12/26 07:08:11;;;;;;;3.60;2.17;;;;;;;;;;5057105;28;20515;-71
2022/12/26 07:10:39;;;;;;;3.10;2.30;;;;;;;;;;5057007;28;20460;-70
2022/12/26 07:13:06;;;;;;;3.57;2.47;;;;;;;;;;5064782;28;20535;-71
2022/12/26 07:15:35;;;;;;;3.90;2.60;;;;;;;;;;5058708;28;20737;-72
2022/12/26 07:18:03;;;;;;;4.40;2.93;;;;;;;;;;5055472;28;20916;-70
2022/12/26 07:20:30;;;;;;;4.97;2.87;;;;;;;;;;5056290;28;20503;-71
2022/12/26 07:22:58;;;;;;;6.73;3.53;;;;;;;;;;5055864;28;20449;-71
2022/12/26 07:25:26;;;;;;;5.33;3.13;;;;;;;;;;5056710;28;20480;-70
2022/12/26 07:27:54;;;;;;;7.77;3.70;;;;;;;;;;5060242;28;20476;-71
2022/12/26 07:30:22;;;;;;;13.17;5.37;;;;;;;;;;5076092;28;20453;-71
2022/12/26 07:32:51;;;;;;;9.47;5.30;;;;;;;;;;5070876;28;20460;-71
2022/12/26 07:35:18;;;;;;;8.57;5.33;;;;;;;;;;5054255;28;20462;-71
2022/12/26 07:37:46;;;;;;;10.53;5.80;;;;;;;;;;5054959;28;20461;-71
2022/12/26 07:40:13;;;;;;;11.07;7.20;;;;;;;;;;5081506;28;20447;-71
2022/12/26 07:42:42;;;;;;;12.90;6.93;;;;;;;;;;5095574;28;20451;-71
2022/12/26 07:45:12;;;;;;;13.50;7.43;;;;;;;;;;5072187;28;20468;-71
2022/12/26 07:47:40;;;;;;;14.33;7.73;;;;;;;;;;5075215;28;20476;-71
2022/12/26 07:50:10;;;;;;;11.80;6.87;;;;;;;;;;5074526;28;20461;-70
2022/12/26 07:52:38;;;;;;;16.70;8.27;;;;;;;;;;5074126;28;20453;-71
2022/12/26 07:55:05;;;;;;;15.13;6.97;;;;;;;;;;5069847;28;20483;-70
2022/12/26 08:00:15;;;;;;;8.97;5.53;;;;;;;;;;5057169;28;20530;-71
2022/12/26 08:02:42;;;;;;;16.70;7.43;;;;;;;;;;5057873;28;20464;-71
2022/12/26 08:05:11;;;;;;;13.10;6.30;;;;;;;;;;5054793;28;20473;-71
2022/12/26 08:07:39;;;;;;;14.77;7.27;;;;;;;;;;5055015;28;20488;-70
2022/12/26 08:10:07;;;;;;;14.30;7.80;;;;;;;;;;5056965;28;20531;-71
2022/12/26 08:12:35;;;;;;;13.00;7.63;;;;;;;;;;5055457;28;20461;-71
2022/12/26 08:15:03;;;;;;;10.73;6.93;;;;;;;;;;5070688;28;20495;-71
2022/12/26 08:17:31;;;;;;;16.30;7.90;;;;;;;;;;5065427;28;20527;-71
2022/12/26 08:19:59;;;;;;;14.57;8.97;;;;;;;;;;5055095;28;20527;-70
2022/12/26 08:22:31;;;;;;;15.47;9.43;;;;;;;;;;5054992;28;20472;-71
2022/12/26 08:24:59;;;;;;;12.50;7.03;;;;;;;;;;5056624;28;20881;-71
2022/12/26 08:27:26;;;;;;;15.93;10.00;;;;;;;;;;5054370;28;20547;-70
2022/12/26 08:29:54;;;;;;;16.30;8.70;;;;;;;;;;5066139;28;20475;-71
2022/12/26 08:32:27;;;;;;;14.53;7.90;;;;;;;;;;5077591;28;20799;-70
2022/12/26 08:34:55;;;;;;;16.33;10.47;;;;;;;;;;5061446;28;20477;-71
2022/12/26 08:37:23;;;;;;;16.50;9.17;;;;;;;;;;5058900;28;20449;-71
2022/12/26 08:39:52;;;;;;;17.27;9.50;;;;;;;;;;5058278;28;20530;-70
2022/12/26 08:42:20;;;;;;;19.53;9.93;;;;;;;;;;5057732;28;20504;-70
2022/12/26 08:44:50;;;;;;;14.83;7.93;;;;;;;;;;5067601;28;20522;-69
2022/12/26 08:47:18;;;;;;;29.17;15.47;;;;;;;;;;5075964;28;20511;-70
2022/12/26 08:49:46;;;;;;;14.27;8.30;;;;;;;;;;5077976;28;20448;-70
2022/12/26 08:52:13;;;;;;;16.83;10.60;;;;;;;;;;5075415;28;20509;-70
2022/12/26 08:54:41;;;;;;;13.30;7.77;;;;;;;;;;5064954;28;20449;-70
2022/12/26 08:57:10;;;;;;;18.70;11.23;;;;;;;;;;5058921;28;20464;-70
2022/12/26 08:59:38;;;;;;;12.97;8.57;;;;;;;;;;5057169;28;20783;-70
2022/12/26 09:02:14;;;;;;;17.63;7.37;;;;;;;;;;5058714;28;20787;-70
2022/12/26 09:04:44;;;;;;;16.13;10.10;;;;;;;;;;5063671;28;20465;-70
2022/12/26 09:07:17;;;;;;;17.23;10.43;;;;;;;;;;5071148;28;20925;-71
2022/12/26 09:09:49;;;;;;;18.33;10.60;;;;;;;;;;5066654;28;20867;-71
2022/12/26 09:12:18;;;;;;;16.63;9.73;;;;;;;;;;5088974;28;20752;-70
2022/12/26 09:14:47;;;;;;;12.90;6.40;;;;;;;;;;5075713;28;20900;-70
2022/12/26 09:17:39;;;;;;;11.50;7.63;;;;;;;;;;5057988;28;20544;-70
2022/12/26 09:20:08;;;;;;;13.40;7.00;;;;;;;;;;5071702;28;20530;-71
2022/12/26 09:22:50;;;;;;;16.73;9.63;;;;;;;;;;5077427;28;20456;-71
2022/12/26 09:25:18;;;;;;;13.50;7.30;;;;;;;;;;5057869;28;20531;-70
2022/12/26 09:27:52;;;;;;;15.90;9.70;;;;;;;;;;5058213;28;20547;-70
2022/12/26 09:30:20;;;;;;;14.03;7.70;;;;;;;;;;5072480;28;21009;-70
2022/12/26 09:32:55;;;;;;;13.60;8.03;;;;;;;;;;5077077;28;20861;-69
2022/12/26 09:35:23;;;;;;;13.53;7.87;;;;;;;;;;5061572;28;20464;-69
2022/12/26 09:38:03;;;;;;;14.10;6.50;;;;;;;;;;5067615;28;20457;-70
2022/12/26 09:40:53;;;;;;;9.60;6.07;;;;;;;;;;5072531;28;20453;-71
2022/12/26 09:43:26;;;;;;;16.47;8.00;;;;;;;;;;5074234;28;20449;-70
2022/12/26 09:45:59;;;;;;;14.30;8.20;;;;;;;;;;5070787;28;20466;-70
2022/12/26 09:48:28;;;;;;;13.43;8.63;;;;;;;;;;5069067;28;20477;-70
2022/12/26 09:51:08;;;;;;;11.60;6.50;;;;;;;;;;5063814;28;20461;-70
2022/12/26 09:53:38;;;;;;;11.30;6.43;;;;;;;;;;5064899;28;20736;-70
2022/12/26 09:56:18;;;;;;;12.43;7.83;;;;;;;;;;5061615;28;20500;-71
2022/12/26 09:58:50;;;;;;;13.77;7.20;;;;;;;;;;5069225;28;20465;-70
2022/12/26 10:01:19;;;;;;;12.23;7.90;;;;;;;;;;5070450;28;20527;-70
2022/12/26 10:03:56;;;;;;;14.13;8.53;;;;;;;;;;5067498;28;20613;-70
2022/12/26 10:06:39;;;;;;;12.67;7.10;;;;;;;;;;5065757;28;20556;-71
2022/12/26 10:09:20;;;;;;;8.90;6.40;;;;;;;;;;5056576;28;20464;-70
2022/12/26 10:11:56;;;;;;;10.73;6.43;;;;;;;;;;5068766;28;20487;-71
2022/12/26 10:14:33;;;;;;;13.20;7.30;;;;;;;;;;5059509;28;20465;-70
2022/12/26 10:17:03;;;;;;;10.97;5.73;;;;;;;;;;5055369;28;20464;-70
2022/12/26 10:19:38;;;;;;;13.70;7.47;;;;;;;;;;5055948;28;20466;-70
2022/12/26 10:22:13;;;;;;;12.53;7.77;;;;;;;;;;5055762;28;20463;-70
2022/12/26 10:24:42;;;;;;;11.07;5.67;;;;;;;;;;5077172;28;20871;-70
2022/12/26 10:27:13;;;;;;;11.00;6.30;;;;;;;;;;5068740;28;20491;-70
2022/12/26 10:29:44;;;;;;;11.70;7.57;;;;;;;;;;5068393;28;20542;-70
2022/12/26 10:32:15;;;;;;;13.00;6.70;;;;;;;;;;5060126;28;20534;-72
2022/12/26 10:34:43;;;;;;;13.13;9.23;;;;;;;;;;5059680;28;20453;-70
2022/12/26 10:37:14;;;;;;;12.33;7.67;;;;;;;;;;5054354;28;20873;-71
2022/12/26 10:39:44;;;;;;;17.93;9.07;;;;;;;;;;5068362;28;20457;-70
2022/12/26 10:42:15;;;;;;;13.57;8.13;;;;;;;;;;5055244;28;20546;-70
2022/12/26 10:44:48;;;;;;;12.20;6.37;;;;;;;;;;5055819;28;20473;-72
2022/12/26 10:47:22;;;;;;;10.57;7.20;;;;;;;;;;5056941;28;20513;-72
2022/12/26 10:49:50;;;;;;;15.40;8.63;;;;;;;;;;5056868;28;20496;-70
2022/12/26 10:52:19;;;;;;;10.73;7.97;;;;;;;;;;5068479;28;20458;-71
2022/12/26 10:54:47;;;;;;;18.87;10.87;;;;;;;;;;5055303;28;20429;-70
2022/12/26 10:57:18;;;;;;;14.13;10.03;;;;;;;;;;5054356;28;20941;-71
2022/12/26 11:03:05;;;;;;;15.43;8.73;;;;;;;;;;5063252;28;20458;-71
2022/12/26 11:05:36;;;;;;;11.37;6.80;;;;;;;;;;5067473;28;20873;-71
2022/12/26 11:08:17;;;;;;;11.23;8.00;;;;;;;;;;5055435;28;20582;-71
2022/12/26 11:10:49;;;;;;;15.47;8.40;;;;;;;;;;5066915;28;20491;-71
2022/12/26 11:13:19;;;;;;;9.80;7.53;;;;;;;;;;5074393;28;20489;-71
2022/12/26 11:15:55;;;;;;;14.23;7.83;;;;;;;;;;5072984;28;20480;-71
2022/12/26 11:18:34;;;;;;;12.97;8.17;;;;;;;;;;5059550;28;20453;-71
2022/12/26 11:21:14;;;;;;;5.67;4.07;;;;;;;;;;5056363;28;20471;-71
2022/12/26 11:23:41;;;;;;;12.77;7.60;;;;;;;;;;5054098;28;20547;-71
2022/12/26 11:26:19;;;;;;;5.80;4.27;;;;;;;;;;5066712;28;20467;-71
2022/12/26 11:28:47;;;;;;;9.17;6.50;;;;;;;;;;5072642;28;20480;-71
2022/12/26 11:31:23;;;;;;;9.10;4.70;;;;;;;;;;5056250;28;20595;-70
2022/12/26 11:33:53;;;;;;;9.23;6.33;;;;;;;;;;5055334;28;20441;-71
2022/12/26 11:36:22;;;;;;;4.23;2.70;;;;;;;;;;5054632;28;20567;-71
2022/12/26 11:38:51;;;;;;;9.90;6.70;;;;;;;;;;5057405;28;20473;-71
2022/12/26 11:41:35;;;;;;;9.27;5.50;;;;;;;;;;5072795;28;20472;-71
2022/12/26 11:44:12;;;;;;;13.27;7.20;;;;;;;;;;5074842;28;20462;-71
2022/12/26 11:46:41;;;;;;;9.23;6.33;;;;;;;;;;5074419;28;20452;-71
2022/12/26 11:49:22;;;;;;;8.73;5.40;;;;;;;;;;5073883;28;20557;-70
2022/12/26 11:51:52;;;;;;;10.50;6.17;;;;;;;;;;5053319;28;20465;-70
2022/12/26 11:54:34;;;;;;;7.10;4.90;;;;;;;;;;5057431;28;20464;-70
2022/12/26 11:57:03;;;;;;;5.80;3.83;;;;;;;;;;5052482;28;20473;-70
2022/12/26 11:59:36;;;;;;;7.87;4.67;;;;;;;;;;5080040;28;20756;-70
2022/12/26 12:02:19;;;;;;;7.97;5.10;;;;;;;;;;5069485;28;20477;-70
2022/12/26 12:04:49;;;;;;;6.50;4.77;;;;;;;;;;5093686;28;20459;-70
2022/12/26 12:07:23;;;;;;;7.57;5.03;;;;;;;;;;5078021;28;20457;-71
2022/12/26 12:10:04;;;;;;;8.40;5.30;;;;;;;;;;5062363;28;20896;-71
2022/12/26 12:12:58;;;;;;;5.70;4.90;;;;;;;;;;5068366;28;20551;-71
2022/12/26 12:15:28;;;;;;;6.47;3.83;;;;;;;;;;5067549;28;20515;-71
2022/12/26 12:18:05;;;;;;;6.17;4.93;;;;;;;;;;5058060;28;20535;-71
2022/12/26 12:20:37;;;;;;;5.70;2.80;;;;;;;;;;5062838;28;20515;-70
2022/12/26 12:23:25;;;;;;;9.00;4.13;;;;;;;;;;5060867;28;20889;-70
2022/12/26 12:26:07;;;;;;;7.93;4.63;;;;;;;;;;5076073;28;20462;-70
2022/12/26 12:28:47;;;;;;;9.70;4.80;;;;;;;;;;5085046;28;20485;-71
2022/12/26 12:31:33;;;;;;;6.30;4.30;;;;;;;;;;5072089;28;20752;-71
2022/12/26 12:34:07;;;;;;;10.20;5.10;;;;;;;;;;5073328;28;20472;-70
2022/12/26 12:36:52;;;;;;;5.53;2.93;;;;;;;;;;5065297;28;20457;-71
2022/12/26 12:39:22;;;;;;;7.30;6.60;;;;;;;;;;5065453;28;20522;-70
2022/12/26 12:42:03;;;;;;;5.70;3.30;;;;;;;;;;5061309;28;20765;-72
2022/12/26 12:44:40;;;;;;;6.10;3.13;;;;;;;;;;5066771;28;20472;-71
2022/12/26 12:47:25;;;;;;;12.17;3.80;;;;;;;;;;5056882;28;20460;-71
2022/12/26 12:50:02;;;;;;;6.53;3.47;;;;;;;;;;5057152;28;20452;-71
2022/12/26 12:52:42;;;;;;;6.20;4.70;;;;;;;;;;5072474;28;20459;-71
2022/12/26 12:55:18;;;;;;;6.87;4.43;;;;;;;;;;5073312;28;20946;-71
2022/12/26 12:57:53;;;;;;;7.67;4.30;;;;;;;;;;5067385;28;20517;-70
2022/12/26 13:00:26;;;;;;;3.47;2.77;;;;;;;;;;5061953;28;20864;-71
2022/12/26 13:02:57;;;;;;;6.67;3.93;;;;;;;;;;5068631;28;20465;-70
2022/12/26 13:05:31;;;;;;;6.23;4.70;;;;;;;;;;5061533;28;20553;-70
2022/12/26 13:08:03;;;;;;;10.80;4.00;;;;;;;;;;5069510;28;20475;-70
2022/12/26 13:10:39;;;;;;;6.97;5.07;;;;;;;;;;5076093;28;20486;-69
2022/12/26 13:13:14;;;;;;;9.20;3.90;;;;;;;;;;5075912;28;20524;-69
2022/12/26 13:15:50;;;;;;;9.20;3.97;;;;;;;;;;5073509;28;20450;-69
2022/12/26 13:18:48;;;;;;;9.30;4.63;;;;;;;;;;5058552;28;20461;-72
2022/12/26 13:21:17;;;;;;;5.67;3.87;;;;;;;;;;5055779;28;20545;-71
2022/12/26 13:26:43;;;;;;;4.47;2.90;;;;;;;;;;5057219;28;20445;-69
2022/12/26 13:29:13;;;;;;;4.13;3.40;;;;;;;;;;5057298;28;20485;-71
2022/12/26 13:31:41;;;;;;;3.67;2.90;;;;;;;;;;5057400;28;20465;-71
2022/12/26 13:34:16;;;;;;;6.13;2.63;;;;;;;;;;5056238;28;20486;-69
2022/12/26 13:36:49;;;;;;;4.30;3.03;;;;;;;;;;5057852;28;20469;-71
2022/12/26 13:39:29;;;;;;;5.60;3.93;;;;;;;;;;5055651;28;20445;-71
2022/12/26 13:44:51;;;;;;;6.33;3.20;;;;;;;;;;5065110;28;20484;-71
2022/12/26 13:47:32;;;;;;;3.00;2.10;;;;;;;;;;5055777;28;20561;-71
2022/12/26 13:50:25;;;;;;;6.33;4.13;;;;;;;;;;5055652;28;20503;-71
2022/12/26 13:52:58;;;;;;;5.07;2.73;;;;;;;;;;5055137;28;20470;-71
2022/12/26 13:55:44;;;;;;;3.33;2.00;;;;;;;;;;5055825;28;20438;-71
2022/12/26 13:58:30;;;;;;;3.50;1.87;;;;;;;;;;5058025;28;20560;-71
2022/12/26 14:01:03;;;;;;;5.57;2.90;;;;;;;;;;5062273;28;20506;-71
2022/12/26 14:03:42;;;;;;;10.97;5.13;;;;;;;;;;5074401;28;20663;-71
2022/12/26 14:06:34;;;;;;;4.47;1.90;;;;;;;;;;5059535;28;20934;-70
2022/12/26 14:09:15;;;;;;;3.30;2.90;;;;;;;;;;5054397;28;20489;-70
2022/12/26 14:11:56;;;;;;;4.60;2.80;;;;;;;;;;5054613;28;20453;-71
2022/12/26 14:14:32;;;;;;;4.47;2.63;;;;;;;;;;5064420;28;20498;-70
2022/12/26 14:17:12;;;;;;;3.83;2.50;;;;;;;;;;5074830;28;20716;-71
2022/12/26 14:19:51;;;;;;;3.17;2.30;;;;;;;;;;5055292;28;20481;-71
2022/12/26 14:22:33;;;;;;;3.80;1.40;;;;;;;;;;5055547;28;20870;-70
2022/12/26 14:25:05;;;;;;;6.30;2.50;;;;;;;;;;5054741;28;20473;-71
2022/12/26 14:27:43;;;;;;;8.37;2.27;;;;;;;;;;5055691;28;20461;-72
2022/12/26 14:30:55;;;;;;;3.03;1.90;;;;;;;;;;5060113;28;20513;-72
2022/12/26 14:33:27;;;;;;;1.90;1.10;;;;;;;;;;5056401;28;20465;-71
2022/12/26 14:36:03;;;;;;;3.60;1.97;;;;;;;;;;5054886;28;20457;-71
2022/12/26 14:38:39;;;;;;;2.00;1.00;;;;;;;;;;5055752;28;20528;-72
2022/12/26 14:41:08;;;;;;;3.10;0.90;;;;;;;;;;5054556;28;20536;-71
2022/12/26 14:43:45;;;;;;;1.87;1.07;;;;;;;;;;5053921;28;20457;-71
2022/12/26 14:46:28;;;;;;;3.70;2.13;;;;;;;;;;5054384;28;20457;-72
2022/12/26 14:49:09;;;;;;;3.17;1.10;;;;;;;;;;5054571;28;20752;-71
2022/12/26 14:51:42;;;;;;;1.90;0.80;;;;;;;;;;5054892;28;20461;-71
2022/12/26 14:57:43;;;;;;;4.17;2.00;;;;;;;;;;5073934;28;20544;-71
2022/12/26 15:00:40;;;;;;;2.83;1.30;;;;;;;;;;5069565;28;20902;-70
2022/12/26 15:03:46;;;;;;;;;;;;;;;;;;;;;
2022/12/26 15:06:34;;;;;;;1.97;1.10;;;;;;;;;;5059033;28;20727;-72
2022/12/26 15:09:16;;;;;;;3.60;1.70;;;;;;;;;;5075851;28;20942;-70
2022/12/26 15:12:03;;;;;;;4.87;1.50;;;;;;;;;;5090020;28;20449;-72
2022/12/26 15:14:53;;;;;;;4.90;2.00;;;;;;;;;;5075405;28;20870;-72
2022/12/26 15:17:28;;;;;;;4.07;2.10;;;;;;;;;;5073228;28;20457;-72
2022/12/26 15:20:16;;;;;;;1.97;0.80;;;;;;;;;;5074405;28;20452;-70
2022/12/26 15:22:58;;;;;;;2.90;1.47;;;;;;;;;;5071489;28;20472;-72
2022/12/26 15:25:43;;;;;;;2.90;1.00;;;;;;;;;;5055308;28;20511;-69
2022/12/26 15:28:29;;;;;;;1.83;0.90;;;;;;;;;;5055340;28;20453;-72
2022/12/26 15:31:24;;;;;;;4.47;1.57;;;;;;;;;;5054705;28;20488;-72
2022/12/26 15:34:07;;;;;;;1.70;0.80;;;;;;;;;;5051216;28;20603;-71
2022/12/26 15:36:41;;;;;;;2.80;1.57;;;;;;;;;;5054390;28;20444;-71
2022/12/26 15:39:54;;;;;;;;;;;;;;;;;;;;;
2022/12/26 15:42:27;;;;;;;1.93;0.80;;;;;;;;;;5074120;28;20437;-71
2022/12/26 15:45:12;;;;;;;4.33;1.63;;;;;;;;;;5073771;28;20690;-72
2022/12/26 15:47:59;;;;;;;5.60;2.73;;;;;;;;;;5074320;28;20472;-72
2022/12/26 15:50:38;;;;;;;5.50;1.47;;;;;;;;;;5074275;28;20935;-71
2022/12/26 15:56:28;;;;;;;4.87;2.60;;;;;;;;;;5061825;28;20528;-72
2022/12/26 15:59:13;;;;;;;2.77;1.10;;;;;;;;;;5074708;28;20445;-71
2022/12/26 16:01:59;;;;;;;1.93;0.73;;;;;;;;;;5059097;28;20469;-71
2022/12/26 16:04:45;;;;;;;3.93;1.10;;;;;;;;;;5055256;28;20457;-72
2022/12/26 16:07:22;;;;;;;3.20;1.43;;;;;;;;;;5054824;28;20473;-71
2022/12/26 16:12:39;;;;;;;2.97;0.90;;;;;;;;;;5052257;28;20468;-71
2022/12/26 16:15:29;;;;;;;;;;;;;;;;;;;;;
2022/12/26 16:18:12;;;;;;;2.13;0.70;;;;;;;;;;5053832;28;20453;-70
2022/12/26 16:23:30;;;;;;;7.13;1.03;;;;;;;;;;5053550;28;20876;-72
2022/12/26 16:26:06;;;;;;;1.57;0.60;;;;;;;;;;5060362;28;20463;-71
2022/12/26 16:28:43;;;;;;;7.87;1.67;;;;;;;;;;5074247;28;20468;-72
2022/12/26 16:31:31;;;;;;;9.50;1.40;;;;;;;;;;5072587;28;20507;-72
2022/12/26 16:34:00;;;;;;;15.10;3.20;;;;;;;;;;5067597;28;20468;-71
2022/12/26 16:36:30;;;;;;;3.77;0.93;;;;;;;;;;5074521;28;20896;-72
2022/12/26 16:38:59;;;;;;;4.80;1.53;;;;;;;;;;5073903;28;20535;-72
2022/12/26 16:41:31;;;;;;;4.17;2.33;;;;;;;;;;5074737;28;21012;-69
2022/12/26 16:44:32;;;;;;;3.60;1.30;;;;;;;;;;5073941;28;20452;-72
2022/12/26 16:47:03;;;;;;;5.37;1.00;;;;;;;;;;5074769;28;20537;-71
2022/12/26 16:49:33;;;;;;;4.60;1.20;;;;;;;;;;5073383;28;20483;-72
2022/12/26 16:52:03;;;;;;;8.10;1.80;;;;;;;;;;5058311;28;20475;-72
2022/12/26 16:54:38;;;;;;;2.30;1.30;;;;;;;;;;5057437;28;20453;-72
2022/12/26 16:57:09;;;;;;;5.40;1.73;;;;;;;;;;5057375;28;20449;-70
2022/12/26 16:59:53;;;;;;;7.10;1.33;;;;;;;;;;5058193;28;20579;-71
2022/12/26 17:02:31;;;;;;;4.80;1.10;;;;;;;;;;5057660;28;20456;-70
2022/12/26 17:05:01;;;;;;;6.23;2.03;;;;;;;;;;5057214;28;20551;-71
2022/12/26 17:07:32;;;;;;;3.63;2.23;;;;;;;;;;5056596;28;20538;-72
2022/12/26 17:10:05;;;;;;;7.70;2.70;;;;;;;;;;5058100;28;20564;-71
2022/12/26 17:12:41;;;;;;;10.63;1.67;;;;;;;;;;5073418;28;20457;-71
2022/12/26 17:15:18;;;;;;;4.67;1.20;;;;;;;;;;5077161;28;21008;-71
2022/12/26 17:17:46;;;;;;;4.23;1.20;;;;;;;;;;5077693;28;20460;-71
2022/12/26 17:20:49;;;;;;;3.53;1.50;;;;;;;;;;5077808;28;20464;-71
2022/12/26 17:23:36;;;;;;;5.63;1.80;;;;;;;;;;4996584;28;20462;-71
2022/12/26 17:26:22;;;;;;;3.30;1.60;;;;;;;;;;4985788;28;20441;-71
2022/12/26 17:28:50;;;;;;;9.13;2.00;;;;;;;;;;5054041;28;20472;-71
2022/12/26 17:31:20;;;;;;;6.90;1.43;;;;;;;;;;5075063;28;20903;-71
2022/12/26 17:33:48;;;;;;;7.50;1.47;;;;;;;;;;5056907;28;20866;-71
2022/12/26 17:36:16;;;;;;;4.40;1.40;;;;;;;;;;5057044;28;20492;-71
2022/12/26 17:38:45;;;;;;;3.00;1.23;;;;;;;;;;5061469;28;20763;-71
2022/12/26 17:41:14;;;;;;;6.13;2.20;;;;;;;;;;5064239;28;20449;-71